Time;durP1;ratioP1;P1;durP2;ratioP2;P2;SDS_P1;SDS_P2;PMS_P1;PMS_P2;Temp;Humidity;BMP_temperature;BMP_pressure;BME280_temperature;BME280_humidity;BME280_pressure;Samples;Min_cycle;Max_cycle;Signal;HPM_P1;HPM_P2
2023/04/08 00:01:12;;;;;;;10.63;8.40;;;4.10;99.90;;;;;;5057016;28;20634;-39
2023/04/08 00:03:38;;;;;;;10.63;8.27;;;4.10;99.90;;;;;;5055106;28;20060;-46
2023/04/08 00:06:03;;;;;;;10.30;8.48;;;4.00;99.90;;;;;;5056767;28;20041;-44
2023/04/08 00:08:29;;;;;;;10.43;8.73;;;4.00;99.90;;;;;;5056429;28;20048;-39
2023/04/08 00:10:55;;;;;;;10.45;8.75;;;3.90;99.90;;;;;;5056188;28;20044;-38
2023/04/08 00:13:20;;;;;;;9.77;8.23;;;3.90;99.90;;;;;;5037314;28;20481;-41
2023/04/08 00:15:46;;;;;;;11.50;8.05;;;3.80;99.90;;;;;;5038573;28;20044;-42
2023/04/08 00:18:14;;;;;;;10.93;8.52;;;3.80;99.90;;;;;;5056972;28;20124;-41
2023/04/08 00:20:41;;;;;;;10.02;8.52;;;3.80;99.90;;;;;;5038803;28;20508;-38
2023/04/08 00:23:07;;;;;;;10.52;8.20;;;3.80;99.90;;;;;;5055892;28;20098;-38
2023/04/08 00:25:32;;;;;;;12.40;8.60;;;3.70;99.90;;;;;;5056119;28;20447;-41
2023/04/08 00:27:58;;;;;;;9.27;8.25;;;3.70;99.90;;;;;;5038024;28;20048;-45
2023/04/08 00:30:24;;;;;;;11.00;9.13;;;3.70;99.90;;;;;;5056152;28;20040;-42
2023/04/08 00:32:49;;;;;;;9.15;7.70;;;3.60;99.90;;;;;;5056586;28;20049;-45
2023/04/08 00:35:15;;;;;;;13.38;8.93;;;3.60;99.90;;;;;;5051919;28;20086;-46
2023/04/08 00:37:41;;;;;;;12.95;9.23;;;3.60;99.90;;;;;;5038485;28;20497;-47
2023/04/08 00:40:07;;;;;;;12.10;9.02;;;3.50;99.90;;;;;;5056600;28;20129;-42
2023/04/08 00:42:32;;;;;;;11.07;8.27;;;3.50;99.90;;;;;;5055453;28;20071;-39
2023/04/08 00:44:58;;;;;;;10.73;9.02;;;3.50;99.90;;;;;;5069752;28;20307;-44
2023/04/08 00:47:24;;;;;;;12.40;9.07;;;3.50;99.90;;;;;;5039546;28;20064;-43
2023/04/08 00:49:50;;;;;;;10.52;7.85;;;3.50;99.90;;;;;;5056868;28;20048;-41
2023/04/08 00:52:16;;;;;;;12.38;9.25;;;3.50;99.90;;;;;;5037401;28;20097;-44
2023/04/08 00:54:42;;;;;;;11.13;9.20;;;3.40;99.90;;;;;;5058807;28;20048;-42
2023/04/08 00:57:07;;;;;;;10.57;8.85;;;3.30;99.90;;;;;;5049143;28;20044;-36
2023/04/08 00:59:35;;;;;;;10.63;8.73;;;3.30;99.90;;;;;;5057820;28;20041;-40
2023/04/08 01:02:16;;;;;;;12.35;9.05;;;3.30;99.90;;;;;;5076109;28;20500;-38
2023/04/08 01:05:04;;;;;;;10.32;8.10;;;3.20;99.90;;;;;;5058157;28;20402;-43
2023/04/08 01:07:36;;;;;;;11.90;8.88;;;3.20;99.90;;;;;;5053597;28;20119;-43
2023/04/08 01:10:11;;;;;;;12.05;9.05;;;3.10;99.90;;;;;;5055793;28;20468;-40
2023/04/08 01:12:43;;;;;;;10.80;9.25;;;3.10;99.90;;;;;;5071726;28;20491;-37
2023/04/08 01:15:11;;;;;;;10.75;9.65;;;3.10;99.90;;;;;;5075933;28;20511;-43
2023/04/08 01:17:40;;;;;;;14.82;9.65;;;3.10;99.90;;;;;;5053800;28;20558;-41
2023/04/08 01:20:08;;;;;;;13.18;9.10;;;3.00;99.90;;;;;;5055893;28;20044;-45
2023/04/08 01:22:53;;;;;;;13.55;10.10;;;3.00;99.90;;;;;;5068290;28;20403;-44
2023/04/08 01:25:23;;;;;;;13.77;9.80;;;3.00;99.90;;;;;;5055919;28;20052;-45
2023/04/08 01:27:51;;;;;;;13.57;9.02;;;3.00;99.90;;;;;;5045551;28;20048;-43
2023/04/08 01:30:19;;;;;;;14.20;9.90;;;3.10;99.90;;;;;;5061883;28;20048;-42
2023/04/08 01:32:46;;;;;;;12.35;11.05;;;3.10;99.90;;;;;;5064488;28;20044;-36
2023/04/08 01:35:14;;;;;;;14.32;10.10;;;3.10;99.90;;;;;;5070502;28;20051;-42
2023/04/08 01:37:42;;;;;;;14.15;10.82;;;3.10;99.90;;;;;;5076022;28;20083;-41
2023/04/08 01:40:09;;;;;;;13.25;9.18;;;3.00;99.90;;;;;;5075885;28;20048;-37
2023/04/08 01:42:36;;;;;;;13.68;9.52;;;3.00;99.90;;;;;;5074324;28;20048;-38
2023/04/08 01:45:03;;;;;;;12.27;9.88;;;2.80;99.90;;;;;;5074903;28;20480;-46
2023/04/08 01:47:29;;;;;;;13.05;10.80;;;2.80;99.90;;;;;;5066014;28;20052;-42
2023/04/08 01:49:56;;;;;;;12.70;10.25;;;2.70;99.90;;;;;;5055277;28;20044;-39
2023/04/08 01:52:24;;;;;;;12.65;10.77;;;2.70;99.90;;;;;;5063721;28;20127;-39
2023/04/08 01:54:50;;;;;;;14.07;10.60;;;2.80;99.90;;;;;;5043553;28;20052;-45
2023/04/08 01:57:22;;;;;;;16.40;11.85;;;2.70;99.90;;;;;;5075235;28;20381;-42
2023/04/08 01:59:52;;;;;;;15.15;10.93;;;2.80;99.90;;;;;;5074167;28;20036;-39
2023/04/08 02:02:21;;;;;;;15.27;11.85;;;2.70;99.90;;;;;;5062790;28;20052;-45
2023/04/08 02:04:47;;;;;;;15.18;12.05;;;2.80;99.90;;;;;;5074340;28;20123;-41
2023/04/08 02:07:14;;;;;;;16.60;11.80;;;2.80;99.90;;;;;;5075240;28;20520;-39
2023/04/08 02:09:40;;;;;;;14.40;12.35;;;2.80;99.90;;;;;;5061194;28;20040;-39
2023/04/08 02:12:06;;;;;;;16.08;12.23;;;2.70;99.90;;;;;;5068980;28;20518;-46
2023/04/08 02:14:32;;;;;;;17.45;12.10;;;2.80;99.90;;;;;;5073883;28;20051;-40
2023/04/08 02:17:06;;;;;;;16.75;12.70;;;2.70;99.90;;;;;;5074555;28;20123;-44
2023/04/08 02:20:02;;;;;;;15.93;12.23;;;2.70;99.90;;;;;;5074631;28;20039;-36
2023/04/08 02:22:34;;;;;;;15.20;12.30;;;2.70;99.90;;;;;;5042674;28;20052;-43
2023/04/08 02:25:03;;;;;;;17.33;12.57;;;2.60;99.90;;;;;;5054976;28;20052;-41
2023/04/08 02:27:31;;;;;;;17.80;13.55;;;2.60;99.90;;;;;;5054743;28;20438;-38
2023/04/08 02:29:57;;;;;;;17.90;13.93;;;2.60;99.90;;;;;;5037131;28;20092;-41
2023/04/08 02:32:24;;;;;;;18.15;13.40;;;2.60;99.90;;;;;;5054395;28;20554;-37
2023/04/08 02:34:50;;;;;;;19.33;14.70;;;2.60;99.90;;;;;;5054551;28;20055;-44
2023/04/08 02:37:16;;;;;;;17.65;13.77;;;2.60;99.90;;;;;;5036475;28;20135;-44
2023/04/08 02:39:42;;;;;;;19.88;15.10;;;2.60;99.90;;;;;;5054629;28;20032;-50
2023/04/08 02:42:07;;;;;;;21.65;14.65;;;2.60;99.90;;;;;;5054204;28;20115;-40
2023/04/08 02:44:33;;;;;;;18.48;14.90;;;2.60;99.90;;;;;;5054814;28;20049;-39
2023/04/08 02:46:59;;;;;;;19.88;14.90;;;2.60;99.90;;;;;;5036209;28;20056;-40
2023/04/08 02:49:24;;;;;;;17.55;14.75;;;2.50;99.90;;;;;;5054715;28;20063;-36
2023/04/08 02:51:50;;;;;;;20.83;15.82;;;2.50;99.90;;;;;;5054049;28;20101;-41
2023/04/08 02:54:16;;;;;;;21.80;16.10;;;2.50;99.90;;;;;;5053664;28;20048;-38
2023/04/08 02:56:41;;;;;;;19.05;14.80;;;2.50;99.90;;;;;;5054292;28;20588;-44
2023/04/08 02:59:07;;;;;;;19.30;16.55;;;2.50;99.90;;;;;;5035637;28;20048;-41
2023/04/08 03:01:33;;;;;;;20.23;17.35;;;2.50;99.90;;;;;;5053885;28;20151;-40
2023/04/08 03:03:58;;;;;;;20.13;15.38;;;2.50;99.90;;;;;;5053239;28;20443;-39
2023/04/08 03:06:24;;;;;;;21.20;16.88;;;2.50;99.90;;;;;;5030822;28;20474;-44
2023/04/08 03:08:50;;;;;;;19.25;15.20;;;2.50;99.90;;;;;;5036412;28;20133;-43
2023/04/08 03:11:15;;;;;;;22.27;16.27;;;2.40;99.90;;;;;;5059204;28;20130;-43
2023/04/08 03:13:41;;;;;;;22.25;15.70;;;2.40;99.90;;;;;;5073356;28;20048;-45
2023/04/08 03:16:07;;;;;;;22.88;16.85;;;2.50;99.90;;;;;;5070266;28;20391;-43
2023/04/08 03:18:33;;;;;;;19.42;16.98;;;2.40;99.90;;;;;;5047240;28;20526;-38
2023/04/08 03:20:58;;;;;;;24.08;18.00;;;2.40;99.90;;;;;;5069541;28;20045;-38
2023/04/08 03:23:24;;;;;;;22.30;17.08;;;2.40;99.90;;;;;;5053244;28;20109;-42
2023/04/08 03:25:50;;;;;;;22.67;16.85;;;2.40;99.90;;;;;;5053776;28;20293;-45
2023/04/08 03:28:16;;;;;;;22.52;16.42;;;2.40;99.90;;;;;;5065518;28;20105;-44
2023/04/08 03:30:41;;;;;;;21.42;17.58;;;2.30;99.90;;;;;;5037934;28;20044;-44
2023/04/08 03:33:07;;;;;;;23.45;17.33;;;2.30;99.90;;;;;;5055202;28;20045;-43
2023/04/08 03:35:33;;;;;;;24.48;19.02;;;2.30;99.90;;;;;;5053801;28;20628;-42
2023/04/08 03:37:59;;;;;;;23.73;17.70;;;2.30;99.90;;;;;;5055687;28;20068;-35
2023/04/08 03:40:24;;;;;;;21.58;17.75;;;2.30;99.90;;;;;;5075748;28;20105;-40
2023/04/08 03:42:50;;;;;;;22.75;18.13;;;2.30;99.90;;;;;;5077054;28;20048;-39
2023/04/08 03:45:16;;;;;;;24.20;17.77;;;2.20;99.90;;;;;;5073434;28;20482;-44
2023/04/08 03:47:41;;;;;;;22.25;18.55;;;2.20;99.90;;;;;;5048444;28;20041;-47
2023/04/08 03:50:08;;;;;;;23.33;17.42;;;2.20;99.90;;;;;;5063485;28;20044;-38
2023/04/08 03:52:33;;;;;;;23.67;17.67;;;2.20;99.90;;;;;;5065450;28;20044;-42
2023/04/08 03:54:59;;;;;;;24.85;18.85;;;2.20;99.90;;;;;;5039746;28;20402;-41
2023/04/08 03:57:25;;;;;;;24.63;19.63;;;2.20;99.90;;;;;;5069668;28;20382;-35
2023/04/08 03:59:50;;;;;;;25.88;18.95;;;2.20;99.90;;;;;;5077884;28;20375;-40
2023/04/08 04:02:16;;;;;;;24.23;19.60;;;2.20;99.90;;;;;;5076551;28;20304;-43
2023/04/08 04:04:41;;;;;;;25.65;19.33;;;2.20;99.90;;;;;;5077631;28;20143;-45
2023/04/08 04:07:07;;;;;;;23.77;19.33;;;2.20;99.90;;;;;;5048013;28;20441;-45
2023/04/08 04:09:33;;;;;;;27.75;19.95;;;2.20;99.90;;;;;;5058382;28;20148;-36
2023/04/08 04:11:58;;;;;;;26.70;19.92;;;2.20;99.90;;;;;;5067052;28;20492;-43
2023/04/08 04:14:24;;;;;;;24.65;19.10;;;2.20;99.90;;;;;;5076856;28;20094;-42
2023/04/08 04:16:50;;;;;;;25.67;19.85;;;2.10;99.90;;;;;;5076956;28;20044;-45
2023/04/08 04:19:17;;;;;;;26.17;20.15;;;2.20;99.90;;;;;;5076699;28;20040;-43
2023/04/08 04:21:43;;;;;;;27.98;21.10;;;2.20;99.90;;;;;;5076534;28;20962;-37
2023/04/08 04:24:08;;;;;;;31.90;21.55;;;2.10;99.90;;;;;;5075448;28;20044;-39
2023/04/08 04:26:34;;;;;;;31.05;21.17;;;2.20;99.90;;;;;;5065637;28;20040;-40
2023/04/08 04:28:59;;;;;;;29.95;21.63;;;2.20;99.90;;;;;;5074419;28;20040;-36
2023/04/08 04:31:25;;;;;;;29.63;23.13;;;2.10;99.90;;;;;;5076688;28;20040;-36
2023/04/08 04:33:51;;;;;;;29.02;21.83;;;2.20;99.90;;;;;;5074280;28;20185;-38
2023/04/08 04:36:17;;;;;;;36.72;22.63;;;2.10;99.90;;;;;;5077211;28;20771;-39
2023/04/08 04:38:43;;;;;;;32.10;23.13;;;2.10;99.90;;;;;;5053775;28;20109;-40
2023/04/08 04:41:09;;;;;;;31.83;23.00;;;2.10;99.90;;;;;;5039198;28;20528;-40
2023/04/08 04:43:35;;;;;;;31.08;23.67;;;2.10;99.90;;;;;;5055505;28;20131;-39
2023/04/08 04:46:02;;;;;;;35.17;23.45;;;2.10;99.90;;;;;;5057350;28;20865;-34
2023/04/08 04:48:28;;;;;;;31.45;22.60;;;2.10;99.90;;;;;;5056267;28;20075;-38
2023/04/08 04:51:02;;;;;;;32.10;23.48;;;2.10;99.90;;;;;;5055942;28;20671;-39
2023/04/08 04:53:28;;;;;;;30.92;22.98;;;2.10;99.90;;;;;;5075662;28;20048;-39
2023/04/08 04:55:54;;;;;;;31.17;23.02;;;2.10;99.90;;;;;;5076752;28;20405;-42
2023/04/08 04:58:20;;;;;;;34.08;23.95;;;2.10;99.90;;;;;;5076383;28;20131;-45
2023/04/08 05:00:45;;;;;;;31.83;23.95;;;2.10;99.90;;;;;;5076777;28;20399;-37
2023/04/08 05:03:12;;;;;;;34.05;23.00;;;2.10;99.90;;;;;;5074976;28;20529;-45
2023/04/08 05:05:38;;;;;;;31.90;23.25;;;2.10;99.90;;;;;;5072207;28;20055;-34
2023/04/08 05:08:04;;;;;;;35.58;23.95;;;2.10;99.90;;;;;;5055312;28;20107;-42
2023/04/08 05:10:29;;;;;;;34.28;25.02;;;2.10;99.90;;;;;;5055563;28;20119;-42
2023/04/08 05:12:55;;;;;;;36.35;25.40;;;2.00;99.90;;;;;;5054517;28;20040;-44
2023/04/08 05:15:21;;;;;;;37.13;24.52;;;2.00;99.90;;;;;;5056225;28;20497;-40
2023/04/08 05:17:47;;;;;;;33.60;23.73;;;2.00;99.90;;;;;;5056040;28;20437;-43
2023/04/08 05:20:12;;;;;;;34.95;24.65;;;2.10;99.90;;;;;;5037815;28;20451;-37
2023/04/08 05:22:38;;;;;;;36.85;24.95;;;2.10;99.90;;;;;;5054814;28;20122;-34
2023/04/08 05:25:05;;;;;;;34.22;24.88;;;2.10;99.90;;;;;;5038099;28;20044;-38
2023/04/08 05:27:30;;;;;;;31.88;24.48;;;2.10;99.90;;;;;;5037167;28;20040;-36
2023/04/08 05:29:56;;;;;;;39.95;27.48;;;2.10;99.90;;;;;;5055636;28;20048;-36
2023/04/08 05:32:22;;;;;;;42.35;27.10;;;2.20;99.90;;;;;;5055379;28;20083;-51
2023/04/08 05:34:47;;;;;;;37.78;25.63;;;2.50;99.90;;;;;;5056090;28;20076;-40
2023/04/08 05:37:13;;;;;;;35.40;26.27;;;3.00;99.90;;;;;;5055870;28;20040;-35
2023/04/08 05:39:39;;;;;;;31.48;24.55;;;3.60;99.90;;;;;;5056591;28;20565;-39
2023/04/08 05:42:04;;;;;;;32.88;25.90;;;4.10;99.90;;;;;;5036710;28;20898;-36
2023/04/08 05:44:30;;;;;;;41.13;24.23;;;4.50;99.90;;;;;;5038137;28;20363;-37
2023/04/08 05:46:57;;;;;;;28.63;22.77;;;4.90;99.90;;;;;;5054716;28;20585;-39
2023/04/08 05:49:22;;;;;;;26.30;23.08;;;4.70;99.90;;;;;;5055729;28;20063;-40
2023/04/08 05:51:48;;;;;;;76.55;22.85;;;4.40;99.90;;;;;;5040585;28;20561;-38
2023/04/08 05:54:14;;;;;;;29.60;21.23;;;4.10;99.90;;;;;;5075141;28;20056;-39
2023/04/08 05:56:39;;;;;;;67.97;22.65;;;3.80;99.90;;;;;;5075061;28;20529;-38
2023/04/08 05:59:05;;;;;;;29.67;22.48;;;3.50;99.90;;;;;;5071708;28;20508;-38
2023/04/08 06:01:31;;;;;;;40.10;21.13;;;3.30;99.90;;;;;;5060416;28;20051;-38
2023/04/08 06:03:56;;;;;;;28.65;21.30;;;3.30;99.90;;;;;;5052889;28;20056;-41
2023/04/08 06:06:22;;;;;;;27.48;21.42;;;3.10;99.90;;;;;;5073192;28;20514;-41
2023/04/08 06:08:48;;;;;;;28.60;22.83;;;3.00;99.90;;;;;;5063872;28;20037;-35
2023/04/08 06:11:14;;;;;;;29.50;22.88;;;3.00;99.90;;;;;;5054696;28;20217;-39
2023/04/08 06:13:41;;;;;;;32.70;22.85;;;3.00;99.90;;;;;;5055659;28;20075;-37
2023/04/08 06:16:11;;;;;;;30.88;23.10;;;3.00;99.90;;;;;;5056675;28;20072;-39
2023/04/08 06:18:37;;;;;;;31.80;24.00;;;3.00;99.90;;;;;;5066643;28;20040;-43
2023/04/08 06:21:03;;;;;;;29.35;23.90;;;3.10;99.90;;;;;;5068332;28;20037;-41
2023/04/08 06:23:29;;;;;;;28.00;23.83;;;3.20;99.90;;;;;;5052506;28;20220;-44
2023/04/08 06:25:55;;;;;;;33.72;25.65;;;3.30;99.90;;;;;;5035683;28;20067;-36
2023/04/08 06:28:20;;;;;;;32.25;23.98;;;3.30;99.90;;;;;;5059971;28;20040;-43
2023/04/08 06:30:46;;;;;;;31.52;23.45;;;3.40;99.90;;;;;;5057671;28;20190;-42
2023/04/08 06:33:11;;;;;;;29.25;24.33;;;3.40;99.90;;;;;;5052473;28;20041;-41
2023/04/08 06:35:37;;;;;;;32.38;24.13;;;3.60;99.90;;;;;;5053739;28;20041;-37
2023/04/08 06:38:03;;;;;;;33.63;27.13;;;3.70;99.90;;;;;;5053908;28;20585;-45
2023/04/08 06:40:29;;;;;;;34.50;26.65;;;4.20;99.90;;;;;;5053663;28;20040;-43
2023/04/08 06:42:54;;;;;;;31.15;24.63;;;5.80;99.90;;;;;;5052540;28;20041;-40
2023/04/08 06:45:20;;;;;;;30.08;25.60;;;7.30;99.90;;;;;;5053857;28;20566;-42
2023/04/08 06:47:46;;;;;;;27.20;24.30;;;8.80;99.90;;;;;;5054423;28;20040;-47
2023/04/08 06:50:11;;;;;;;27.42;23.45;;;10.00;99.90;;;;;;5054158;28;20047;-44
2023/04/08 06:52:37;;;;;;;27.25;24.33;;;9.90;99.90;;;;;;5052837;28;20393;-40
2023/04/08 06:55:03;;;;;;;26.48;23.75;;;9.40;99.90;;;;;;5054154;28;20041;-43
2023/04/08 06:57:29;;;;;;;26.15;22.55;;;9.00;99.90;;;;;;5035799;28;20114;-39
2023/04/08 06:59:55;;;;;;;25.85;22.95;;;8.40;99.90;;;;;;5056090;28;20137;-44
2023/04/08 07:02:21;;;;;;;27.52;24.70;;;8.00;99.90;;;;;;5035065;28;20048;-36
2023/04/08 07:04:47;;;;;;;30.13;24.13;;;7.60;99.90;;;;;;5035825;28;20383;-41
2023/04/08 07:07:14;;;;;;;31.13;27.10;;;7.20;99.90;;;;;;5035940;28;20125;-38
2023/04/08 07:09:42;;;;;;;26.73;23.98;;;7.00;99.90;;;;;;5055192;28;20116;-42
2023/04/08 07:12:07;;;;;;;28.95;24.85;;;6.80;99.90;;;;;;5052517;28;20072;-39
2023/04/08 07:14:33;;;;;;;28.13;25.13;;;6.60;99.90;;;;;;5037830;28;20455;-37
2023/04/08 07:16:59;;;;;;;30.45;25.35;;;6.60;99.90;;;;;;5057514;28;20490;-42
2023/04/08 07:19:25;;;;;;;29.15;24.67;;;6.60;99.90;;;;;;5056953;28;20152;-41
2023/04/08 07:21:51;;;;;;;30.60;26.40;;;6.60;99.90;;;;;;5055878;28;20040;-39
2023/04/08 07:24:17;;;;;;;32.13;25.17;;;6.70;99.90;;;;;;5057457;28;20487;-38
2023/04/08 07:26:43;;;;;;;30.35;26.30;;;6.80;99.90;;;;;;5039500;28;20053;-41
2023/04/08 07:29:09;;;;;;;29.50;26.30;;;6.90;99.90;;;;;;5058197;28;20502;-46
2023/04/08 07:31:35;;;;;;;30.15;26.85;;;7.00;99.90;;;;;;5057856;28;20048;-46
2023/04/08 07:34:00;;;;;;;28.73;25.63;;;7.00;99.90;;;;;;5058649;28;20329;-38
2023/04/08 07:36:27;;;;;;;29.98;26.67;;;7.30;99.90;;;;;;5052605;28;20048;-42
2023/04/08 07:38:52;;;;;;;30.13;26.65;;;7.70;99.90;;;;;;5057258;28;20068;-39
2023/04/08 07:41:19;;;;;;;30.75;26.45;;;7.90;99.90;;;;;;5038774;28;20156;-44
2023/04/08 07:43:45;;;;;;;33.85;27.13;;;8.00;99.90;;;;;;5036865;28;20048;-39
2023/04/08 07:46:10;;;;;;;31.13;27.80;;;8.00;99.90;;;;;;5057114;28;20059;-38
2023/04/08 07:48:37;;;;;;;31.80;28.38;;;7.90;99.90;;;;;;5056907;28;20490;-41
2023/04/08 07:51:07;;;;;;;31.58;25.50;;;7.80;99.90;;;;;;5057652;28;20040;-35
2023/04/08 07:53:33;;;;;;;34.50;27.25;;;7.70;99.90;;;;;;5055732;28;20048;-36
2023/04/08 07:55:59;;;;;;;31.02;26.48;;;7.60;99.90;;;;;;5057244;28;20355;-42
2023/04/08 07:58:25;;;;;;;33.55;27.25;;;7.60;99.90;;;;;;5056761;28;20040;-36
2023/04/08 08:00:51;;;;;;;33.03;28.77;;;7.50;99.90;;;;;;5038953;28;20473;-43
2023/04/08 08:03:17;;;;;;;33.85;28.55;;;7.50;99.90;;;;;;5037496;28;20043;-40
2023/04/08 08:05:43;;;;;;;32.58;27.80;;;7.50;99.90;;;;;;5056491;28;20045;-42
2023/04/08 08:08:10;;;;;;;31.58;27.90;;;7.50;99.90;;;;;;5056434;28;20045;-41
2023/04/08 08:10:37;;;;;;;35.28;29.33;;;7.50;99.90;;;;;;5019373;28;20060;-44
2023/04/08 08:13:05;;;;;;;32.72;27.58;;;7.60;99.90;;;;;;5037180;28;20087;-37
2023/04/08 08:15:31;;;;;;;33.90;28.17;;;7.60;99.90;;;;;;5055974;28;20041;-46
2023/04/08 08:17:56;;;;;;;33.38;29.45;;;7.70;99.90;;;;;;5054675;28;20538;-38
2023/04/08 08:20:22;;;;;;;34.50;27.95;;;7.60;99.90;;;;;;5070663;28;20444;-47
2023/04/08 08:22:47;;;;;;;32.25;28.30;;;7.70;99.90;;;;;;5062348;28;20482;-37
2023/04/08 08:25:13;;;;;;;34.05;30.23;;;7.80;99.90;;;;;;5075780;28;20036;-41
2023/04/08 08:27:41;;;;;;;32.75;28.77;;;7.80;99.90;;;;;;5077191;28;20799;-44
2023/04/08 08:30:07;;;;;;;34.47;30.67;;;8.00;99.90;;;;;;5077718;28;20502;-36
2023/04/08 08:32:33;;;;;;;34.42;28.80;;;8.10;99.90;;;;;;5067999;28;20123;-36
2023/04/08 08:34:58;;;;;;;34.22;29.98;;;8.20;99.90;;;;;;5038861;28;20121;-40
2023/04/08 08:37:24;;;;;;;31.73;27.95;;;8.30;99.90;;;;;;5063925;28;20040;-42
2023/04/08 08:39:50;;;;;;;30.98;26.70;;;8.50;99.90;;;;;;5058219;28;20083;-46
2023/04/08 08:42:20;;;;;;;30.00;26.77;;;8.70;99.90;;;;;;5059168;28;20048;-43
2023/04/08 08:44:46;;;;;;;30.48;26.67;;;9.10;99.90;;;;;;5071162;28;20105;-47
2023/04/08 08:47:12;;;;;;;33.08;27.85;;;9.40;99.90;;;;;;5070634;28;20045;-43
2023/04/08 08:49:37;;;;;;;29.05;25.45;;;9.70;99.90;;;;;;5039400;28;20057;-44
2023/04/08 08:52:03;;;;;;;27.35;24.50;;;9.50;99.90;;;;;;5073407;28;20052;-36
2023/04/08 08:54:30;;;;;;;26.88;24.02;;;9.50;99.90;;;;;;5074548;28;20136;-44
2023/04/08 08:56:56;;;;;;;27.52;24.63;;;9.40;99.90;;;;;;5046724;28;20043;-37
2023/04/08 08:59:22;;;;;;;25.77;23.05;;;9.40;99.90;;;;;;5076199;28;20084;-44
2023/04/08 09:01:48;;;;;;;25.73;23.02;;;9.50;99.90;;;;;;5075828;28;20140;-41
2023/04/08 09:04:17;;;;;;;25.35;22.65;;;9.50;99.90;;;;;;5061688;28;20496;-36
2023/04/08 09:06:43;;;;;;;26.65;22.73;;;9.70;99.90;;;;;;5055551;28;20080;-41
2023/04/08 09:09:09;;;;;;;25.35;22.35;;;9.90;99.90;;;;;;5055132;28;20056;-45
2023/04/08 09:11:37;;;;;;;26.27;23.48;;;10.00;99.90;;;;;;5055307;28;20051;-40
2023/04/08 09:14:03;;;;;;;27.83;25.02;;;10.00;99.90;;;;;;5069315;28;20075;-42
2023/04/08 09:16:31;;;;;;;24.35;21.85;;;10.10;99.90;;;;;;5076256;28;20581;-39
2023/04/08 09:19:08;;;;;;;23.10;20.70;;;10.20;99.90;;;;;;5043026;28;20045;-42
2023/04/08 09:21:34;;;;;;;25.08;22.48;;;10.40;99.90;;;;;;5064902;28;20039;-42
2023/04/08 09:24:00;;;;;;;25.52;22.80;;;10.50;99.90;;;;;;5075959;28;20561;-39
2023/04/08 09:26:26;;;;;;;28.27;25.27;;;10.10;99.90;;;;;;5075810;28;20048;-41
2023/04/08 09:29:06;;;;;;;23.30;20.90;;;10.20;99.90;;;;;;5043918;28;20490;-45
2023/04/08 09:31:36;;;;;;;27.08;24.17;;;10.20;99.90;;;;;;5074867;28;20048;-41
2023/04/08 09:34:13;;;;;;;26.40;23.75;;;10.00;99.90;;;;;;5053783;28;20044;-41
2023/04/08 09:36:39;;;;;;;26.27;23.58;;;10.00;99.90;;;;;;5058504;28;20068;-44
2023/04/08 09:39:06;;;;;;;27.65;24.90;;;10.00;99.90;;;;;;5056788;28;20059;-38
2023/04/08 09:41:34;;;;;;;26.13;23.33;;;10.10;99.90;;;;;;5069206;28;20656;-44
2023/04/08 09:44:06;;;;;;;25.48;22.83;;;10.30;99.90;;;;;;5076616;28;20047;-41
2023/04/08 09:46:50;;;;;;;25.35;22.75;;;10.30;99.90;;;;;;5074817;28;20050;-44
2023/04/08 09:49:28;;;;;;;26.35;23.65;;;10.50;99.90;;;;;;5055707;28;20487;-38
2023/04/08 09:52:12;;;;;;;26.00;23.17;;;10.60;99.90;;;;;;5041164;28;20485;-38
2023/04/08 09:54:44;;;;;;;25.63;23.13;;;10.70;99.90;;;;;;5054531;28;20040;-38
2023/04/08 09:57:20;;;;;;;25.60;23.08;;;10.80;99.90;;;;;;5053948;28;20110;-43
2023/04/08 10:00:04;;;;;;;28.25;24.55;;;10.70;99.90;;;;;;5055087;28;20109;-46
2023/04/08 10:02:38;;;;;;;22.30;20.10;;;10.90;99.90;;;;;;5054316;28;20398;-38
2023/04/08 10:05:05;;;;;;;20.83;18.77;;;10.80;99.90;;;;;;5055028;28;20051;-39
2023/04/08 10:07:31;;;;;;;19.63;17.63;;;10.80;99.90;;;;;;5050242;28;20485;-42
2023/04/08 10:09:57;;;;;;;17.83;16.02;;;10.90;99.90;;;;;;5055195;28;20024;-46
2023/04/08 10:12:23;;;;;;;18.63;16.73;;;10.90;99.90;;;;;;5035763;28;20520;-45
2023/04/08 10:15:27;;;;;;;16.42;14.70;;;11.00;99.90;;;;;;5054962;28;20151;-37
2023/04/08 10:17:54;;;;;;;15.88;13.57;;;10.80;99.90;;;;;;5054676;28;20044;-45
2023/04/08 10:20:34;;;;;;;18.85;14.98;;;10.80;99.90;;;;;;5055184;28;20184;-48
2023/04/08 10:23:07;;;;;;;15.60;13.40;;;11.00;99.90;;;;;;5042744;28;20070;-38
2023/04/08 10:25:37;;;;;;;16.05;14.45;;;11.10;99.90;;;;;;5036238;28;20044;-44
2023/04/08 10:28:18;;;;;;;15.65;14.10;;;11.00;99.90;;;;;;5036426;28;20057;-41
2023/04/08 10:30:44;;;;;;;15.68;14.07;;;10.80;99.90;;;;;;5036719;28;20061;-42
2023/04/08 10:33:12;;;;;;;16.85;15.15;;;10.80;99.90;;;;;;5055002;28;20043;-45
2023/04/08 10:35:42;;;;;;;15.07;13.63;;;11.00;99.90;;;;;;5055033;28;20040;-40
2023/04/08 10:38:08;;;;;;;15.88;14.18;;;11.10;99.90;;;;;;5037712;28;20491;-40
2023/04/08 10:40:40;;;;;;;15.38;13.88;;;11.00;99.90;;;;;;5074725;28;20079;-41
2023/04/08 10:43:06;;;;;;;14.38;12.88;;;11.10;99.90;;;;;;5073140;28;20398;-39
2023/04/08 10:45:32;;;;;;;16.23;14.43;;;11.10;99.90;;;;;;5074742;28;20509;-42
2023/04/08 10:48:23;;;;;;;15.10;13.65;;;11.10;99.90;;;;;;5064237;28;20530;-40
2023/04/08 10:50:59;;;;;;;15.65;13.95;;;11.30;99.90;;;;;;5059780;28;20801;-44
2023/04/08 10:53:32;;;;;;;14.88;13.23;;;11.30;99.90;;;;;;5061014;28;20052;-44
2023/04/08 10:56:17;;;;;;;;;;;11.50;99.90;;;;;;5058301;28;20044;-40
2023/04/08 10:58:51;;;;;;;14.23;12.73;;;11.50;99.90;;;;;;5056884;28;19924;-43
2023/04/08 11:01:17;;;;;;;14.40;12.98;;;11.60;99.90;;;;;;5042415;28;20060;-49
2023/04/08 11:03:43;;;;;;;14.65;13.15;;;11.40;99.90;;;;;;5059998;28;20368;-39
2023/04/08 11:06:09;;;;;;;15.90;14.20;;;11.60;99.90;;;;;;5058872;28;20052;-39
2023/04/08 11:08:35;;;;;;;16.27;14.63;;;11.30;99.90;;;;;;5058629;28;20041;-41
2023/04/08 11:11:03;;;;;;;16.00;14.32;;;11.20;99.90;;;;;;5057166;28;20052;-39
2023/04/08 11:13:29;;;;;;;15.18;13.38;;;11.30;99.90;;;;;;5042036;28;20442;-38
2023/04/08 11:15:57;;;;;;;16.83;15.23;;;11.30;99.90;;;;;;5062181;28;20140;-40
2023/04/08 11:18:22;;;;;;;17.13;15.32;;;11.10;99.90;;;;;;5059969;28;20047;-39
2023/04/08 11:20:52;;;;;;;18.02;16.13;;;11.10;99.90;;;;;;5078037;28;20473;-37
2023/04/08 11:23:18;;;;;;;18.35;16.40;;;10.70;99.90;;;;;;5059300;28;20070;-38
2023/04/08 11:25:45;;;;;;;18.75;16.85;;;10.70;99.90;;;;;;5077613;28;20116;-39
2023/04/08 11:28:13;;;;;;;19.67;17.58;;;10.70;99.90;;;;;;5077928;28;20547;-50
2023/04/08 11:30:40;;;;;;;19.20;17.25;;;10.70;99.90;;;;;;5056351;28;20055;-36
2023/04/08 11:33:09;;;;;;;21.73;18.83;;;10.60;99.90;;;;;;5059075;28;20045;-41
2023/04/08 11:35:42;;;;;;;21.83;19.02;;;10.40;99.90;;;;;;5058243;28;20059;-45
2023/04/08 11:38:09;;;;;;;19.52;17.48;;;10.40;99.90;;;;;;5058113;28;20510;-36
2023/04/08 11:40:35;;;;;;;20.23;18.13;;;10.30;99.90;;;;;;5057815;28;20497;-46
2023/04/08 11:43:14;;;;;;;18.05;16.15;;;10.30;99.90;;;;;;5056845;28;20110;-43
2023/04/08 11:45:41;;;;;;;17.98;15.07;;;10.50;99.90;;;;;;5057651;28;20684;-47
2023/04/08 11:48:14;;;;;;;16.67;14.60;;;10.40;99.90;;;;;;5057810;28;20067;-43
2023/04/08 11:50:40;;;;;;;;;;;10.40;99.90;;;;;;5057823;28;20059;-45
2023/04/08 11:53:20;;;;;;;15.82;14.13;;;10.40;99.90;;;;;;5044470;28;20663;-43
2023/04/08 11:55:47;;;;;;;16.63;14.60;;;10.30;99.90;;;;;;5068796;28;20044;-45
2023/04/08 11:58:13;;;;;;;16.98;15.18;;;10.30;99.90;;;;;;5076771;28;20109;-42
2023/04/08 12:00:38;;;;;;;17.48;15.30;;;10.30;99.90;;;;;;5077660;28;20048;-42
2023/04/08 12:03:05;;;;;;;16.15;14.45;;;10.30;99.90;;;;;;5072173;28;20116;-38
2023/04/08 12:05:31;;;;;;;16.80;14.63;;;10.30;99.90;;;;;;5077721;28;20858;-41
2023/04/08 12:07:56;;;;;;;17.27;15.48;;;10.40;99.90;;;;;;5073019;28;20125;-42
2023/04/08 12:10:24;;;;;;;16.45;14.75;;;10.30;99.90;;;;;;5057235;28;20105;-44
2023/04/08 12:12:49;;;;;;;16.40;14.73;;;10.20;99.90;;;;;;5073185;28;20052;-37
2023/04/08 12:15:16;;;;;;;17.35;15.55;;;10.20;99.90;;;;;;5058543;28;20567;-40
2023/04/08 12:17:42;;;;;;;17.10;15.30;;;10.30;99.90;;;;;;5059881;28;20048;-46
2023/04/08 12:20:09;;;;;;;16.88;14.63;;;10.50;99.90;;;;;;5057402;28;20063;-37
2023/04/08 12:22:35;;;;;;;17.50;15.60;;;10.60;99.90;;;;;;5055333;28;20056;-48
2023/04/08 12:25:02;;;;;;;17.27;15.48;;;10.60;99.90;;;;;;5056842;28;20524;-37
2023/04/08 12:27:33;;;;;;;18.05;16.13;;;10.60;99.90;;;;;;5061900;28;20052;-41
2023/04/08 12:30:01;;;;;;;18.92;15.02;;;10.70;99.90;;;;;;5076963;28;20040;-43
2023/04/08 12:32:27;;;;;;;17.20;15.43;;;10.70;99.90;;;;;;5068324;28;20088;-47
2023/04/08 12:34:52;;;;;;;18.40;16.50;;;10.80;99.90;;;;;;5056458;28;20139;-38
2023/04/08 12:37:19;;;;;;;17.30;15.50;;;10.80;99.90;;;;;;5056370;28;20044;-44